createdAt,value
2022-12-19T00:01:21.866Z,22.60
2022-12-19T00:04:23.518Z,23.98
2022-12-19T00:07:25.163Z,22.67
2022-12-19T00:10:26.793Z,21.43
2022-12-19T00:13:29.999Z,25.38
2022-12-19T00:16:34.663Z,32.70
2022-12-19T00:19:36.441Z,29.73
2022-12-19T00:22:41.876Z,32.33
2022-12-19T00:25:43.484Z,32.47
2022-12-19T00:28:47.236Z,34.10
2022-12-19T00:31:48.914Z,31.95
2022-12-19T00:34:50.522Z,31.67
2022-12-19T00:37:52.106Z,32.30
2022-12-19T00:40:53.708Z,30.03
2022-12-19T00:43:58.835Z,29.88
2022-12-19T00:47:00.431Z,29.13
2022-12-19T00:50:02.535Z,29.57
2022-12-19T00:53:04.196Z,29.65
2022-12-19T00:56:07.736Z,30.05
2022-12-19T00:59:10.618Z,29.17
2022-12-19T01:02:12.494Z,28.00
2022-12-19T01:05:14.142Z,30.08
2022-12-19T01:08:15.750Z,30.75
2022-12-19T01:11:39.928Z,32.23
2022-12-19T01:14:41.510Z,29.70
2022-12-19T01:17:44.197Z,29.02
2022-12-19T01:20:49.317Z,27.53
2022-12-19T01:23:50.972Z,28.15
2022-12-19T01:26:52.545Z,30.20
2022-12-19T01:29:54.279Z,29.52
2022-12-19T01:32:56.353Z,26.85
2022-12-19T01:35:59.383Z,26.48
2022-12-19T01:39:04.799Z,24.90
2022-12-19T01:42:23.118Z,21.60
2022-12-19T01:45:33.381Z,23.98
2022-12-19T01:48:37.948Z,22.67
2022-12-19T01:51:45.518Z,20.83
2022-12-19T01:54:47.127Z,21.23
2022-12-19T01:57:48.663Z,20.58
2022-12-19T02:00:50.732Z,21.50
2022-12-19T02:03:52.344Z,20.98
2022-12-19T02:06:54.955Z,21.63
2022-12-19T02:09:57.512Z,21.73
2022-12-19T02:12:59.328Z,20.13
2022-12-19T02:16:22.834Z,21.80
2022-12-19T02:19:26.740Z,18.10
2022-12-19T02:22:51.389Z,21.10
2022-12-19T02:26:16.341Z,19.05
2022-12-19T02:29:21.113Z,18.58
2022-12-19T02:32:48.019Z,18.90
2022-12-19T02:35:54.143Z,19.20
2022-12-19T02:39:13.463Z,19.65
2022-12-19T02:42:20.627Z,19.15
2022-12-19T02:45:28.523Z,18.83
2022-12-19T02:48:30.632Z,16.92
2022-12-19T02:51:32.194Z,20.02
2022-12-19T02:54:38.145Z,17.07
2022-12-19T02:58:05.821Z,18.73
2022-12-19T03:01:22.512Z,18.02
2022-12-19T03:04:47.750Z,17.42
2022-12-19T03:07:50.361Z,17.25
2022-12-19T03:10:58.627Z,15.85
2022-12-19T03:14:14.762Z,16.83
2022-12-19T03:17:19.326Z,16.87
2022-12-19T03:20:59.212Z,17.88
2022-12-19T03:24:00.795Z,17.30
2022-12-19T03:27:05.272Z,17.27
2022-12-19T03:30:09.470Z,16.40
2022-12-19T03:33:11.132Z,17.45
2022-12-19T03:36:15.083Z,17.67
2022-12-19T03:39:16.734Z,17.48
2022-12-19T03:42:36.872Z,17.15
2022-12-19T03:45:55.969Z,17.10
2022-12-19T03:48:58.069Z,15.93
2022-12-19T03:52:18.107Z,16.70
2022-12-19T03:55:23.344Z,16.55
2022-12-19T03:58:28.705Z,16.47
2022-12-19T04:01:31.129Z,16.98
2022-12-19T04:04:36.178Z,18.02
2022-12-19T04:07:38.078Z,16.33
2022-12-19T04:10:47.553Z,18.05
2022-12-19T04:13:55.973Z,16.67
2022-12-19T04:17:06.400Z,18.00
2022-12-19T04:20:12.930Z,17.83
2022-12-19T04:23:25.395Z,19.67
2022-12-19T04:26:26.978Z,17.92
2022-12-19T04:29:28.771Z,18.77
2022-12-19T04:32:30.428Z,18.15
2022-12-19T04:35:32.302Z,18.10
2022-12-19T04:38:33.907Z,17.15
2022-12-19T04:41:39.142Z,17.23
2022-12-19T04:44:40.752Z,16.90
2022-12-19T04:47:42.350Z,16.08
2022-12-19T04:50:43.927Z,14.60
2022-12-19T04:53:45.617Z,16.20
2022-12-19T04:56:47.215Z,14.65
2022-12-19T04:59:48.799Z,14.43
2022-12-19T05:02:50.616Z,14.40
2022-12-19T05:05:52.410Z,14.50
2022-12-19T05:08:53.967Z,16.95
2022-12-19T05:12:00.043Z,16.38
2022-12-19T05:15:02.088Z,13.32
2022-12-19T05:18:04.154Z,14.40
2022-12-19T05:21:05.997Z,14.87
2022-12-19T05:24:07.897Z,12.38
2022-12-19T05:27:09.502Z,13.18
2022-12-19T05:30:11.645Z,14.23
2022-12-19T05:33:13.270Z,15.23
2022-12-19T05:36:15.911Z,14.98
2022-12-19T05:39:17.584Z,14.90
2022-12-19T05:42:21.883Z,15.25
2022-12-19T05:45:23.455Z,14.85
2022-12-19T05:48:25.045Z,13.73
2022-12-19T05:51:26.709Z,14.93
2022-12-19T05:54:28.346Z,14.45
2022-12-19T05:57:29.912Z,15.25
2022-12-19T06:00:31.893Z,15.97
2022-12-19T06:03:33.667Z,16.38
2022-12-19T06:06:35.314Z,17.58
2022-12-19T06:09:36.902Z,16.52
2022-12-19T06:12:38.489Z,14.10
2022-12-19T06:15:40.103Z,15.55
2022-12-19T06:18:44.886Z,16.25
2022-12-19T06:21:48.448Z,19.00
2022-12-19T06:24:50.747Z,15.90
2022-12-19T06:27:52.339Z,16.83
2022-12-19T06:30:57.576Z,12.23
2022-12-19T06:33:59.197Z,15.20
2022-12-19T06:37:04.084Z,18.35
2022-12-19T06:40:30.027Z,16.65
2022-12-19T06:43:31.597Z,16.10
2022-12-19T06:46:33.518Z,18.35
2022-12-19T06:49:35.169Z,20.00
2022-12-19T06:52:36.959Z,18.83
2022-12-19T06:55:39.280Z,19.13
2022-12-19T06:58:40.875Z,20.17
2022-12-19T07:01:42.511Z,19.93
2022-12-19T07:04:47.020Z,18.73
2022-12-19T07:07:48.643Z,22.27
2022-12-19T07:10:50.398Z,21.08
2022-12-19T07:13:52.045Z,21.73
2022-12-19T07:16:53.666Z,17.73
2022-12-19T07:19:56.164Z,21.92
2022-12-19T07:22:57.763Z,21.57
2022-12-19T07:25:59.412Z,19.80
2022-12-19T07:29:01.355Z,22.70
2022-12-19T07:32:03.121Z,22.17
2022-12-19T07:35:05.658Z,20.00
2022-12-19T07:38:07.429Z,22.27
2022-12-19T07:41:09.072Z,22.60
2022-12-19T07:44:13.325Z,22.17
2022-12-19T07:47:15.032Z,24.27
2022-12-19T07:50:16.637Z,24.48
2022-12-19T07:53:18.630Z,21.50
2022-12-19T07:56:20.244Z,24.40
2022-12-19T07:59:29.609Z,17.48
2022-12-19T08:02:33.307Z,23.47
2022-12-19T08:05:35.303Z,22.75
2022-12-19T08:08:37.842Z,24.05
2022-12-19T08:11:39.595Z,24.67
2022-12-19T08:14:41.170Z,24.70
2022-12-19T08:17:42.978Z,22.90
2022-12-19T08:20:46.333Z,21.60
2022-12-19T08:23:48.089Z,21.23
2022-12-19T08:26:49.693Z,22.75
2022-12-19T08:29:51.341Z,23.55
2022-12-19T08:32:52.930Z,22.73
2022-12-19T08:35:54.941Z,24.08
2022-12-19T08:38:56.599Z,24.40
2022-12-19T08:41:58.678Z,23.85
2022-12-19T08:45:00.346Z,18.77
2022-12-19T08:48:01.968Z,23.17
2022-12-19T08:51:07.751Z,23.00
2022-12-19T08:54:10.847Z,23.03
2022-12-19T08:57:13.598Z,22.98
2022-12-19T09:00:15.786Z,16.90
2022-12-19T09:03:20.148Z,14.70
2022-12-19T09:06:25.273Z,18.42
2022-12-19T09:09:27.223Z,18.90
2022-12-19T09:12:28.810Z,18.30
2022-12-19T09:15:30.512Z,18.23
2022-12-19T09:18:32.275Z,17.90
2022-12-19T09:21:33.967Z,19.13
2022-12-19T09:24:35.564Z,17.47
2022-12-19T09:28:01.169Z,16.63
2022-12-19T09:31:01.003Z,16.52
2022-12-19T09:34:02.714Z,18.37
2022-12-19T09:37:04.799Z,17.38
2022-12-19T09:40:07.296Z,17.25
2022-12-19T09:43:21.199Z,14.68
2022-12-19T09:46:26.310Z,15.10
2022-12-19T09:49:39.934Z,14.23
2022-12-19T09:52:43.778Z,14.25
2022-12-19T09:55:47.913Z,14.83
2022-12-19T09:58:54.705Z,14.07
2022-12-19T10:02:32.143Z,13.88
2022-12-19T10:05:53.154Z,12.83
2022-12-19T10:09:36.578Z,13.00
2022-12-19T10:12:43.380Z,14.73
2022-12-19T10:16:13.507Z,12.02
2022-12-19T10:19:59.968Z,13.68
2022-12-19T10:23:20.503Z,12.95
2022-12-19T10:26:44.163Z,13.13
2022-12-19T10:30:02.645Z,9.47
2022-12-19T10:33:32.075Z,13.23
2022-12-19T10:37:12.896Z,13.35
2022-12-19T10:40:28.228Z,12.63
2022-12-19T10:43:52.091Z,12.68
2022-12-19T10:46:53.733Z,12.95
2022-12-19T10:49:55.860Z,12.52
2022-12-19T10:53:07.513Z,12.27
2022-12-19T10:56:14.101Z,12.75
2022-12-19T10:59:17.091Z,11.00
2022-12-19T11:02:39.368Z,10.10
2022-12-19T11:05:50.649Z,12.18
2022-12-19T11:09:18.898Z,11.88
2022-12-19T11:16:13.040Z,11.67
2022-12-19T11:20:26.997Z,11.75
2022-12-19T11:29:18.620Z,11.55
2022-12-19T11:29:32.462Z,11.85
2022-12-19T11:30:26.150Z,11.90
2022-12-19T11:33:47.567Z,12.43
2022-12-19T11:36:56.925Z,11.03
2022-12-19T11:40:01.381Z,11.80
2022-12-19T11:43:42.622Z,11.75
2022-12-19T11:46:49.496Z,11.70
2022-12-19T11:49:58.923Z,10.40
2022-12-19T11:53:24.067Z,12.10
2022-12-19T11:56:27.844Z,10.77
2022-12-19T11:59:35.076Z,11.23
2022-12-19T12:03:07.854Z,10.70
2022-12-19T12:06:13.788Z,10.98
2022-12-19T12:14:54.656Z,11.83
2022-12-19T12:23:37.851Z,11.07
2022-12-19T12:30:03.765Z,11.20
2022-12-19T12:31:00.296Z,11.90
2022-12-19T12:31:42.621Z,12.50
2022-12-19T12:31:58.470Z,11.18
2022-12-19T12:38:51.753Z,11.55
2022-12-19T12:42:12.210Z,10.93
2022-12-19T12:45:20.063Z,12.57
2022-12-19T12:48:24.665Z,11.95
2022-12-19T12:51:27.149Z,11.82
2022-12-19T12:54:37.872Z,12.87
2022-12-19T12:57:39.572Z,11.38
2022-12-19T13:00:41.142Z,12.55
2022-12-19T13:03:43.443Z,12.27
2022-12-19T13:06:51.197Z,12.23
2022-12-19T13:09:55.590Z,12.02
2022-12-19T13:13:19.776Z,11.57
2022-12-19T13:16:43.034Z,10.30
2022-12-19T13:19:55.010Z,10.82
2022-12-19T13:22:59.587Z,13.27
2022-12-19T13:26:01.217Z,13.37
2022-12-19T13:29:27.340Z,13.10
2022-12-19T13:32:40.958Z,12.88
2022-12-19T13:39:46.989Z,13.27
2022-12-19T13:39:54.777Z,13.90
2022-12-19T13:42:45.224Z,12.52
2022-12-19T13:45:52.830Z,12.15
2022-12-19T13:49:03.365Z,12.53
2022-12-19T13:52:05.342Z,11.80
2022-12-19T13:55:14.210Z,13.55
2022-12-19T13:58:29.342Z,13.50
2022-12-19T14:01:35.545Z,12.63
2022-12-19T14:04:39.976Z,12.30
2022-12-19T14:07:41.691Z,13.32
2022-12-19T14:11:41.660Z,11.40
2022-12-19T14:14:29.861Z,12.70
2022-12-19T14:17:31.566Z,12.70
2022-12-19T14:22:09.703Z,11.80
2022-12-19T14:24:16.348Z,12.18
2022-12-19T14:28:28.375Z,13.80
2022-12-19T14:30:41.120Z,12.43
2022-12-19T14:34:35.483Z,12.85
2022-12-19T14:39:19.408Z,14.07
2022-12-19T14:41:41.343Z,13.43
2022-12-19T14:52:35.814Z,12.23
2022-12-19T14:53:52.229Z,13.70
2022-12-19T14:54:29.541Z,13.35
2022-12-19T14:56:12.966Z,13.27
2022-12-19T14:58:54.290Z,13.32
2022-12-19T15:02:00.063Z,12.77
2022-12-19T15:05:11.131Z,12.80
2022-12-19T15:08:13.007Z,12.75
2022-12-19T15:11:53.991Z,14.07
2022-12-19T15:15:17.717Z,13.68
2022-12-19T15:18:20.680Z,15.13
2022-12-19T15:21:22.274Z,14.07
2022-12-19T15:24:23.871Z,14.23
2022-12-19T15:27:25.906Z,12.90
2022-12-19T15:30:27.585Z,14.48
2022-12-19T15:33:29.180Z,13.13
2022-12-19T15:36:30.816Z,14.60
2022-12-19T15:39:32.695Z,13.60
2022-12-19T15:42:35.016Z,14.57
2022-12-19T15:45:37.008Z,15.73
2022-12-19T15:48:40.528Z,13.48
2022-12-19T15:51:42.258Z,15.32
2022-12-19T15:54:48.957Z,14.45
2022-12-19T15:57:56.682Z,13.57
2022-12-19T16:01:00.177Z,14.48
2022-12-19T16:04:03.487Z,14.38
2022-12-19T16:07:16.575Z,15.63
2022-12-19T16:10:18.313Z,15.43
2022-12-19T16:13:25.041Z,14.95
2022-12-19T16:16:26.805Z,16.35
2022-12-19T16:19:30.112Z,14.05
2022-12-19T16:22:31.756Z,15.00
2022-12-19T16:25:52.598Z,16.27
2022-12-19T16:28:54.304Z,14.67
2022-12-19T16:31:56.668Z,13.10
2022-12-19T16:34:58.337Z,14.60
2022-12-19T16:37:59.920Z,14.37
2022-12-19T16:41:04.257Z,15.48
2022-12-19T16:44:17.326Z,15.60
2022-12-19T16:47:20.809Z,16.20
2022-12-19T16:50:24.955Z,15.10
2022-12-19T16:53:26.675Z,17.20
2022-12-19T16:56:34.359Z,16.38
2022-12-19T16:59:37.584Z,15.33
2022-12-19T17:02:42.209Z,13.75
2022-12-19T17:05:43.972Z,15.00
2022-12-19T17:08:45.724Z,15.70
2022-12-19T17:11:48.932Z,16.60
2022-12-19T17:14:50.792Z,15.68
2022-12-19T17:17:53.767Z,15.88
2022-12-19T17:20:55.362Z,16.63
2022-12-19T17:23:56.944Z,15.73
2022-12-19T17:26:58.540Z,15.27
2022-12-19T17:30:00.306Z,15.77
2022-12-19T17:33:03.454Z,15.32
2022-12-19T17:36:05.711Z,16.17
2022-12-19T17:39:21.223Z,15.30
2022-12-19T17:42:23.916Z,15.40
2022-12-19T17:45:29.431Z,15.50
2022-12-19T17:48:32.003Z,16.90
2022-12-19T17:51:33.591Z,16.70
2022-12-19T17:54:36.108Z,18.40
2022-12-19T17:57:37.696Z,17.25
2022-12-19T18:00:39.662Z,15.70
2022-12-19T18:03:41.340Z,16.63
2022-12-19T18:06:45.779Z,15.35
2022-12-19T18:09:48.285Z,18.10
2022-12-19T18:12:50.114Z,17.35
2022-12-19T18:15:51.757Z,18.08
2022-12-19T18:18:53.419Z,18.65
2022-12-19T18:21:55.032Z,18.05
2022-12-19T18:25:02.673Z,18.55
2022-12-19T18:28:04.291Z,19.58
2022-12-19T18:31:23.114Z,18.77
2022-12-19T18:34:25.878Z,20.38
2022-12-19T18:37:27.472Z,20.45
2022-12-19T18:40:31.602Z,19.60
2022-12-19T18:43:33.816Z,19.48
2022-12-19T18:46:35.927Z,21.73
2022-12-19T18:49:37.688Z,20.02
2022-12-19T18:52:39.303Z,20.02
2022-12-19T18:55:40.930Z,21.33
2022-12-19T18:58:42.626Z,19.13
2022-12-19T19:01:46.361Z,19.97
2022-12-19T19:04:48.321Z,19.35
2022-12-19T19:07:50.030Z,19.63
2022-12-19T19:10:53.061Z,19.13
2022-12-19T19:13:54.647Z,19.85
2022-12-19T19:16:56.573Z,19.13
2022-12-19T19:19:58.668Z,18.65
2022-12-19T19:23:00.324Z,19.67
2022-12-19T19:26:02.214Z,19.52
2022-12-19T19:29:03.962Z,18.00
2022-12-19T19:32:08.515Z,19.73
2022-12-19T19:35:10.195Z,19.33
2022-12-19T19:38:11.955Z,18.77
2022-12-19T19:41:13.672Z,20.43
2022-12-19T19:44:15.264Z,21.08
2022-12-19T19:47:16.872Z,19.80
2022-12-19T19:50:19.076Z,19.60
2022-12-19T19:53:20.679Z,22.50
2022-12-19T19:56:22.263Z,19.02
2022-12-19T19:59:23.898Z,19.63
2022-12-19T20:02:25.711Z,18.70
2022-12-19T20:05:27.475Z,19.60
2022-12-19T20:08:37.033Z,19.35
2022-12-19T20:11:44.958Z,18.77
2022-12-19T20:14:47.062Z,17.95
2022-12-19T20:17:51.391Z,18.85
2022-12-19T20:20:52.962Z,18.45
2022-12-19T20:23:54.550Z,18.08
2022-12-19T20:27:01.693Z,19.98
2022-12-19T20:30:04.298Z,20.45
2022-12-19T20:33:05.962Z,18.13
2022-12-19T20:36:11.500Z,19.17
2022-12-19T20:39:13.079Z,19.65
2022-12-19T20:42:17.535Z,19.03
2022-12-19T20:45:19.139Z,19.30
2022-12-19T20:48:20.728Z,19.30
2022-12-19T20:51:22.397Z,20.33
2022-12-19T20:54:24.005Z,19.17
2022-12-19T20:57:29.815Z,19.00
2022-12-19T21:00:31.437Z,19.90
2022-12-19T21:03:33.301Z,19.03
2022-12-19T21:06:37.696Z,19.50
2022-12-19T21:09:40.504Z,18.92
2022-12-19T21:12:47.831Z,18.57
2022-12-19T21:15:57.135Z,20.17
2022-12-19T21:18:58.766Z,20.25
2022-12-19T21:22:00.391Z,20.02
2022-12-19T21:25:01.998Z,19.90
2022-12-19T21:28:03.654Z,22.95
2022-12-19T21:31:07.439Z,21.00
2022-12-19T21:34:09.870Z,21.07
2022-12-19T21:37:11.464Z,20.48
2022-12-19T21:40:13.522Z,21.88
2022-12-19T21:43:18.335Z,21.33
2022-12-19T21:46:21.766Z,20.73
2022-12-19T21:49:23.467Z,20.83
2022-12-19T21:52:25.085Z,20.73
2022-12-19T21:55:26.681Z,20.30
2022-12-19T21:58:28.291Z,20.60
2022-12-19T22:01:30.555Z,20.58
2022-12-19T22:04:32.267Z,20.73
2022-12-19T22:07:34.601Z,20.55
2022-12-19T22:10:38.536Z,21.90
2022-12-19T22:13:40.209Z,21.77
2022-12-19T22:16:42.038Z,21.73
2022-12-19T22:19:44.270Z,21.10
2022-12-19T22:22:45.834Z,21.58
2022-12-19T22:25:47.425Z,21.77
2022-12-19T22:28:55.105Z,22.95
2022-12-19T22:31:56.779Z,22.23
2022-12-19T22:34:58.423Z,21.30
2022-12-19T22:38:00.117Z,21.25
2022-12-19T22:41:04.929Z,20.60
2022-12-19T22:44:10.962Z,21.50
2022-12-19T22:47:12.565Z,23.02
2022-12-19T22:50:14.184Z,21.80
2022-12-19T22:53:15.905Z,24.02
2022-12-19T22:56:18.838Z,23.25
2022-12-19T22:59:20.550Z,23.48
2022-12-19T23:02:22.282Z,23.30
2022-12-19T23:05:24.352Z,22.70
2022-12-19T23:08:25.985Z,21.70
2022-12-19T23:11:32.948Z,22.80
2022-12-19T23:14:38.162Z,23.13
2022-12-19T23:17:39.750Z,24.08
2022-12-19T23:20:41.583Z,24.52
2022-12-19T23:23:43.806Z,22.02
2022-12-19T23:26:45.392Z,24.52
2022-12-19T23:29:51.341Z,23.95
2022-12-19T23:32:52.987Z,24.00
2022-12-19T23:35:54.592Z,24.60
2022-12-19T23:38:56.285Z,22.95
2022-12-19T23:41:57.854Z,23.02
2022-12-19T23:45:03.616Z,23.77
2022-12-19T23:48:05.635Z,23.65
2022-12-19T23:51:09.121Z,23.20
2022-12-19T23:54:11.327Z,21.67
2022-12-19T23:57:12.878Z,22.67
